Time;durP1;ratioP1;P1;durP2;ratioP2;P2;SDS_P1;SDS_P2;PMS_P1;PMS_P2;Temp;Humidity;BMP_temperature;BMP_pressure;BME280_temperature;BME280_humidity;BME280_pressure;Samples;Min_cycle;Max_cycle;Signal;HPM_P1;HPM_P2
2021/12/14 00:01:37;;;;;;;27.93;12.40;;;;;;;;;;5058502;28;20769;-60
2021/12/14 00:04:09;;;;;;;26.30;13.20;;;;;;;;;;5057990;28;20414;-60
2021/12/14 00:06:35;;;;;;;20.70;10.33;;;;;;;;;;5058165;28;20432;-59
2021/12/14 00:09:03;;;;;;;17.20;10.70;;;;;;;;;;5057919;28;20453;-61
2021/12/14 00:16:44;;;;;;;22.67;12.57;;;;;;;;;;5057549;28;20443;-61
2021/12/14 00:19:10;;;;;;;19.27;10.80;;;;;;;;;;5057453;28;20994;-61
2021/12/14 00:21:37;;;;;;;18.33;11.27;;;;;;;;;;5057778;28;20489;-61
2021/12/14 00:24:14;;;;;;;19.43;10.43;;;;;;;;;;5057717;28;20406;-61
2021/12/14 00:26:43;;;;;;;18.03;10.40;;;;;;;;;;5057965;28;20385;-62
2021/12/14 00:29:13;;;;;;;17.67;10.43;;;;;;;;;;5054995;28;20432;-61
2021/12/14 00:31:39;;;;;;;15.80;9.23;;;;;;;;;;5055846;28;20429;-61
2021/12/14 00:34:07;;;;;;;16.47;10.20;;;;;;;;;;5055525;28;20406;-61
2021/12/14 00:36:35;;;;;;;17.60;9.77;;;;;;;;;;5054268;28;20406;-61
2021/12/14 00:39:02;;;;;;;15.50;9.43;;;;;;;;;;5054085;28;20467;-61
2021/12/14 00:41:31;;;;;;;14.33;9.43;;;;;;;;;;5054347;28;20394;-61
2021/12/14 00:43:58;;;;;;;16.80;9.50;;;;;;;;;;5054251;28;20394;-62
2021/12/14 00:46:24;;;;;;;13.33;8.80;;;;;;;;;;5054388;28;20451;-61
2021/12/14 00:48:51;;;;;;;16.43;8.80;;;;;;;;;;5054104;28;20417;-61
2021/12/14 00:51:21;;;;;;;11.57;7.53;;;;;;;;;;5054093;28;20433;-60
2021/12/14 00:53:47;;;;;;;11.33;7.93;;;;;;;;;;5053934;28;20410;-61
2021/12/14 00:56:13;;;;;;;14.53;7.60;;;;;;;;;;5054194;28;20409;-61
2021/12/14 00:58:40;;;;;;;13.80;7.70;;;;;;;;;;5053785;28;20488;-61
2021/12/14 01:01:08;;;;;;;13.63;7.60;;;;;;;;;;5053857;28;20401;-60
2021/12/14 01:03:36;;;;;;;15.37;8.17;;;;;;;;;;5053584;28;20394;-62
2021/12/14 01:06:03;;;;;;;14.60;8.37;;;;;;;;;;5054057;28;20402;-62
2021/12/14 01:08:34;;;;;;;12.67;7.87;;;;;;;;;;5053579;28;20430;-61
2021/12/14 01:11:13;;;;;;;14.20;7.23;;;;;;;;;;5053624;28;20378;-61
2021/12/14 01:13:49;;;;;;;11.00;7.70;;;;;;;;;;5054008;28;20403;-62
2021/12/14 01:16:29;;;;;;;14.60;8.03;;;;;;;;;;5053692;28;20433;-61
2021/12/14 01:19:13;;;;;;;12.27;7.50;;;;;;;;;;5053667;28;20461;-62
2021/12/14 01:25:00;;;;;;;12.53;8.40;;;;;;;;;;5061710;28;20409;-61
2021/12/14 01:27:25;;;;;;;9.30;6.27;;;;;;;;;;5053328;28;20420;-61
2021/12/14 01:29:53;;;;;;;8.17;6.03;;;;;;;;;;5052394;28;20425;-61
2021/12/14 01:32:21;;;;;;;9.57;5.83;;;;;;;;;;5053152;28;20393;-62
2021/12/14 01:34:47;;;;;;;10.47;6.47;;;;;;;;;;5054561;28;20451;-62
2021/12/14 01:37:18;;;;;;;8.63;6.60;;;;;;;;;;5055495;28;20442;-62
2021/12/14 01:42:26;;;;;;;10.23;6.73;;;;;;;;;;5055458;28;20385;-61
2021/12/14 01:44:54;;;;;;;9.67;6.33;;;;;;;;;;5054840;28;20398;-62
2021/12/14 01:47:26;;;;;;;9.90;6.13;;;;;;;;;;5055021;28;20406;-62
2021/12/14 01:49:52;;;;;;;7.67;4.23;;;;;;;;;;5054825;28;20498;-61
2021/12/14 01:52:21;;;;;;;8.13;5.77;;;;;;;;;;5054758;28;20401;-62
2021/12/14 01:54:50;;;;;;;6.83;4.30;;;;;;;;;;5054156;28;20394;-61
2021/12/14 01:57:17;;;;;;;7.97;4.83;;;;;;;;;;5053792;28;20449;-61
2021/12/14 01:59:45;;;;;;;10.30;5.87;;;;;;;;;;5053980;28;20422;-62
2021/12/14 02:02:29;;;;;;;7.80;4.70;;;;;;;;;;5054394;28;20405;-63
2021/12/14 02:04:56;;;;;;;7.60;5.07;;;;;;;;;;5055977;28;20928;-62
2021/12/14 02:07:23;;;;;;;7.10;4.67;;;;;;;;;;5045841;28;20423;-61
2021/12/14 02:09:52;;;;;;;6.97;4.70;;;;;;;;;;5044217;28;20430;-61
2021/12/14 02:12:21;;;;;;;8.50;5.10;;;;;;;;;;5052784;28;20398;-61
2021/12/14 02:14:47;;;;;;;8.43;5.00;;;;;;;;;;5055884;28;20409;-60
2021/12/14 02:17:16;;;;;;;9.00;4.40;;;;;;;;;;5057019;28;20453;-62
2021/12/14 02:19:43;;;;;;;7.83;5.53;;;;;;;;;;5056799;28;20497;-61
2021/12/14 02:22:09;;;;;;;14.07;6.10;;;;;;;;;;5056728;28;20422;-61
2021/12/14 02:24:37;;;;;;;15.40;4.90;;;;;;;;;;5056717;28;20390;-61
2021/12/14 02:27:04;;;;;;;6.47;4.30;;;;;;;;;;5055377;28;20406;-62
2021/12/14 02:29:32;;;;;;;8.67;5.27;;;;;;;;;;5056618;28;20922;-62
2021/12/14 02:32:04;;;;;;;8.77;5.50;;;;;;;;;;5056526;28;20883;-62
2021/12/14 02:34:31;;;;;;;12.00;5.80;;;;;;;;;;5056499;28;20760;-61
2021/12/14 02:36:57;;;;;;;8.20;4.90;;;;;;;;;;5056337;28;20906;-61
2021/12/14 02:40:14;;;;;;;7.40;4.93;;;;;;;;;;5056567;28;20501;-61
2021/12/14 02:42:20;;;;;;;9.27;5.37;;;;;;;;;;5058545;28;20913;-61
2021/12/14 02:44:47;;;;;;;9.43;4.97;;;;;;;;;;5056350;28;20381;-60
2021/12/14 02:47:16;;;;;;;11.57;5.57;;;;;;;;;;5056418;28;20505;-58
2021/12/14 02:49:43;;;;;;;12.43;5.63;;;;;;;;;;5056397;28;20425;-62
2021/12/14 02:52:14;;;;;;;9.43;5.43;;;;;;;;;;5056395;28;20398;-60
2021/12/14 02:54:40;;;;;;;11.07;5.40;;;;;;;;;;5056519;28;20451;-62
2021/12/14 02:57:09;;;;;;;8.20;4.60;;;;;;;;;;5055913;28;20803;-61
2021/12/14 02:59:36;;;;;;;11.10;5.23;;;;;;;;;;5056142;28;20413;-60
2021/12/14 03:02:05;;;;;;;4.80;3.57;;;;;;;;;;5056334;28;20402;-62
2021/12/14 03:04:31;;;;;;;5.10;3.37;;;;;;;;;;5056325;28;20789;-61
2021/12/14 03:06:59;;;;;;;4.87;3.40;;;;;;;;;;5055995;28;20394;-61
2021/12/14 03:10:16;;;;;;;5.40;3.67;;;;;;;;;;5055831;28;20765;-62
2021/12/14 03:12:43;;;;;;;11.67;4.23;;;;;;;;;;5056286;28;20726;-62
2021/12/14 03:15:10;;;;;;;4.47;2.93;;;;;;;;;;5056078;28;20432;-61
2021/12/14 03:17:36;;;;;;;7.00;3.93;;;;;;;;;;5055780;28;20447;-62
2021/12/14 03:20:07;;;;;;;4.90;3.53;;;;;;;;;;5058616;28;20418;-62
2021/12/14 03:22:40;;;;;;;5.37;2.93;;;;;;;;;;5059020;28;20394;-62
2021/12/14 03:25:06;;;;;;;5.30;3.40;;;;;;;;;;5058285;28;20448;-62
2021/12/14 03:27:37;;;;;;;5.87;3.30;;;;;;;;;;5059074;28;20452;-62
2021/12/14 03:30:06;;;;;;;4.70;2.63;;;;;;;;;;5058633;28;20928;-62
2021/12/14 03:32:34;;;;;;;5.07;3.50;;;;;;;;;;5058843;28;20399;-62
2021/12/14 03:35:00;;;;;;;4.53;3.00;;;;;;;;;;5058843;28;20493;-62
2021/12/14 03:37:26;;;;;;;4.53;3.00;;;;;;;;;;5058360;28;20445;-62
2021/12/14 03:39:54;;;;;;;10.37;3.10;;;;;;;;;;5055296;28;20449;-63
2021/12/14 03:42:35;;;;;;;6.47;2.90;;;;;;;;;;5048283;28;20430;-62
2021/12/14 03:45:02;;;;;;;4.17;2.93;;;;;;;;;;5057554;28;20930;-62
2021/12/14 03:47:30;;;;;;;7.77;3.50;;;;;;;;;;5058579;28;20401;-61
2021/12/14 03:49:57;;;;;;;7.87;3.60;;;;;;;;;;5058940;28;20406;-62
2021/12/14 03:52:26;;;;;;;6.67;3.10;;;;;;;;;;5058132;28;20406;-62
2021/12/14 03:54:52;;;;;;;6.63;3.60;;;;;;;;;;5058409;28;20510;-62
2021/12/14 03:57:18;;;;;;;9.30;3.80;;;;;;;;;;5057705;28;21027;-62
2021/12/14 03:59:45;;;;;;;7.47;3.83;;;;;;;;;;5057933;28;20445;-62
2021/12/14 04:02:13;;;;;;;8.00;3.70;;;;;;;;;;5057842;28;20426;-62
2021/12/14 04:04:42;;;;;;;9.03;4.90;;;;;;;;;;5058170;28;20402;-62
2021/12/14 04:07:10;;;;;;;7.70;4.07;;;;;;;;;;5057953;28;20891;-61
2021/12/14 04:09:37;;;;;;;6.73;3.60;;;;;;;;;;5057730;28;20422;-62
2021/12/14 04:12:05;;;;;;;5.40;3.50;;;;;;;;;;5058108;28;20430;-62
2021/12/14 04:14:31;;;;;;;4.27;2.80;;;;;;;;;;5057740;28;20495;-63
2021/12/14 04:16:59;;;;;;;4.80;3.37;;;;;;;;;;5058047;28;20492;-61
2021/12/14 04:19:28;;;;;;;3.70;2.60;;;;;;;;;;5057771;28;20418;-61
2021/12/14 04:21:56;;;;;;;3.50;2.40;;;;;;;;;;5057812;28;20394;-62
2021/12/14 04:24:24;;;;;;;4.30;2.57;;;;;;;;;;5052169;28;20425;-62
2021/12/14 04:26:51;;;;;;;3.10;2.43;;;;;;;;;;5037967;28;20414;-62
2021/12/14 04:29:17;;;;;;;3.70;2.40;;;;;;;;;;5048558;28;20438;-62
2021/12/14 04:31:44;;;;;;;3.97;2.73;;;;;;;;;;5056678;28;20410;-61
2021/12/14 04:34:14;;;;;;;4.57;2.70;;;;;;;;;;5054252;28;20402;-62
2021/12/14 04:36:43;;;;;;;4.23;3.10;;;;;;;;;;5053746;28;20797;-62
2021/12/14 04:53:15;;;;;;;12.47;3.17;;;;;;;;;;5054069;28;20808;-62
2021/12/14 04:55:43;;;;;;;5.10;3.30;;;;;;;;;;5054106;28;20412;-62
2021/12/14 04:58:09;;;;;;;4.83;2.73;;;;;;;;;;5053650;28;20469;-62
2021/12/14 05:00:42;;;;;;;4.03;2.60;;;;;;;;;;5053621;28;20448;-62
2021/12/14 05:03:23;;;;;;;7.90;3.30;;;;;;;;;;5052706;28;20398;-62
2021/12/14 05:05:50;;;;;;;4.93;3.33;;;;;;;;;;5053867;28;20913;-62
2021/12/14 05:10:52;;;;;;;4.13;2.90;;;;;;;;;;5053931;28;20505;-62
2021/12/14 05:13:26;;;;;;;5.83;2.87;;;;;;;;;;5053681;28;20401;-61
2021/12/14 05:15:52;;;;;;;5.27;3.20;;;;;;;;;;5053865;28;20410;-61
2021/12/14 05:18:18;;;;;;;5.70;3.43;;;;;;;;;;5053442;28;20484;-60
2021/12/14 05:20:45;;;;;;;9.03;3.03;;;;;;;;;;5053831;28;20463;-59
2021/12/14 05:23:18;;;;;;;6.57;3.33;;;;;;;;;;5053494;28;20886;-61
2021/12/14 05:25:44;;;;;;;4.63;3.50;;;;;;;;;;5053479;28;20439;-61
2021/12/14 05:28:14;;;;;;;4.20;3.20;;;;;;;;;;5053336;28;20960;-61
2021/12/14 05:30:43;;;;;;;4.97;3.03;;;;;;;;;;5054045;28;20840;-61
2021/12/14 05:33:10;;;;;;;5.00;2.87;;;;;;;;;;5053956;28;20440;-62
2021/12/14 05:35:37;;;;;;;4.80;2.57;;;;;;;;;;5053685;28;20851;-62
2021/12/14 05:38:05;;;;;;;2.90;2.30;;;;;;;;;;5055645;28;20465;-62
2021/12/14 05:40:44;;;;;;;2.90;2.23;;;;;;;;;;5056166;28;20410;-62
2021/12/14 05:43:13;;;;;;;6.30;3.70;;;;;;;;;;5056999;28;20386;-62
2021/12/14 05:45:40;;;;;;;4.03;3.07;;;;;;;;;;5057057;28;20887;-62
2021/12/14 05:48:07;;;;;;;6.50;3.20;;;;;;;;;;5055992;28;20842;-62
2021/12/14 05:50:36;;;;;;;6.20;3.67;;;;;;;;;;5055962;28;20459;-62
2021/12/14 05:53:03;;;;;;;8.40;5.47;;;;;;;;;;5056321;28;20405;-62
2021/12/14 05:55:33;;;;;;;5.27;2.77;;;;;;;;;;5055949;28;20405;-61
2021/12/14 05:57:59;;;;;;;6.33;3.70;;;;;;;;;;5055774;28;20560;-62
2021/12/14 06:00:28;;;;;;;4.43;3.10;;;;;;;;;;5054280;28;20460;-62
2021/12/14 06:02:54;;;;;;;3.37;2.53;;;;;;;;;;5055635;28;20516;-62
2021/12/14 06:05:21;;;;;;;4.43;2.90;;;;;;;;;;5055695;28;20390;-62
2021/12/14 06:07:47;;;;;;;5.13;3.63;;;;;;;;;;5055415;28;20771;-62
2021/12/14 06:10:14;;;;;;;4.00;3.40;;;;;;;;;;5056084;28;20414;-62
2021/12/14 06:12:41;;;;;;;4.30;3.30;;;;;;;;;;5052652;28;20418;-62
2021/12/14 06:15:10;;;;;;;4.97;3.23;;;;;;;;;;5040961;28;20414;-61
2021/12/14 06:17:39;;;;;;;5.10;4.60;;;;;;;;;;5037308;28;20453;-62
2021/12/14 06:20:05;;;;;;;6.20;4.03;;;;;;;;;;5045071;28;20423;-61
2021/12/14 06:22:31;;;;;;;4.37;3.40;;;;;;;;;;5047846;28;20163;-63
2021/12/14 06:24:59;;;;;;;5.53;4.27;;;;;;;;;;5054812;28;20417;-61
2021/12/14 06:27:26;;;;;;;7.50;4.00;;;;;;;;;;5050446;28;20414;-64
2021/12/14 06:30:12;;;;;;;6.75;4.82;;;;;;;;;;5033108;28;20405;-58
2021/12/14 06:32:41;;;;;;;6.10;4.60;;;;;;;;;;5042677;28;20547;-60
2021/12/14 06:35:10;;;;;;;5.63;3.60;;;;;;;;;;5034523;28;20407;-57
2021/12/14 06:40:17;;;;;;;4.97;3.30;;;;;;;;;;5040949;28;20406;-59
2021/12/14 06:42:45;;;;;;;5.43;3.63;;;;;;;;;;5048313;28;20429;-59
2021/12/14 06:45:16;;;;;;;4.63;3.57;;;;;;;;;;5034108;28;20418;-58
2021/12/14 06:47:43;;;;;;;5.93;4.43;;;;;;;;;;5042727;28;20418;-59
2021/12/14 06:50:14;;;;;;;4.70;3.13;;;;;;;;;;5048699;28;20460;-65
2021/12/14 06:52:41;;;;;;;5.13;3.17;;;;;;;;;;5045994;28;20463;-65
2021/12/14 06:55:07;;;;;;;6.27;3.43;;;;;;;;;;5054233;28;20413;-67
2021/12/14 06:57:33;;;;;;;4.63;3.67;;;;;;;;;;5034346;28;20454;-67
2021/12/14 06:59:59;;;;;;;4.63;2.93;;;;;;;;;;5040324;28;20752;-67
2021/12/14 07:02:26;;;;;;;4.23;3.10;;;;;;;;;;5043141;28;20418;-68
2021/12/14 07:04:52;;;;;;;4.80;3.20;;;;;;;;;;5057748;28;20409;-68
2021/12/14 07:07:20;;;;;;;4.63;3.03;;;;;;;;;;5058853;28;20816;-66
2021/12/14 07:09:51;;;;;;;4.60;3.60;;;;;;;;;;5057050;28;20430;-68
2021/12/14 07:12:22;;;;;;;4.70;2.90;;;;;;;;;;5059934;28;20447;-64
2021/12/14 07:14:54;;;;;;;5.80;4.07;;;;;;;;;;5051582;28;20414;-65
2021/12/14 07:17:29;;;;;;;4.23;2.93;;;;;;;;;;5037821;28;20461;-66
2021/12/14 07:20:00;;;;;;;4.10;3.50;;;;;;;;;;5037420;28;20450;-68
2021/12/14 07:22:28;;;;;;;3.20;2.73;;;;;;;;;;5035096;28;20493;-66
2021/12/14 07:25:13;;;;;;;3.73;3.20;;;;;;;;;;5037585;28;20516;-64
2021/12/14 07:27:40;;;;;;;9.20;3.50;;;;;;;;;;5039961;28;20479;-66
2021/12/14 07:30:12;;;;;;;6.17;4.17;;;;;;;;;;5058626;28;20417;-66
2021/12/14 07:32:44;;;;;;;7.33;4.60;;;;;;;;;;5066658;28;20484;-70
2021/12/14 07:35:20;;;;;;;5.13;3.60;;;;;;;;;;5040902;28;20909;-64
2021/12/14 07:37:46;;;;;;;6.70;4.20;;;;;;;;;;5036225;28;20454;-62
2021/12/14 07:40:13;;;;;;;4.20;3.00;;;;;;;;;;5051180;28;20470;-62
2021/12/14 07:42:39;;;;;;;3.53;3.23;;;;;;;;;;5055268;28;20398;-60
2021/12/14 07:45:06;;;;;;;3.47;2.97;;;;;;;;;;5055120;28;20989;-60
2021/12/14 07:47:32;;;;;;;4.20;3.30;;;;;;;;;;5055147;28;20489;-60
2021/12/14 07:49:59;;;;;;;3.67;2.87;;;;;;;;;;5055206;28;20402;-61
2021/12/14 07:52:25;;;;;;;6.60;3.33;;;;;;;;;;5055103;28;20414;-60
2021/12/14 07:54:57;;;;;;;4.00;2.73;;;;;;;;;;5055104;28;20406;-59
2021/12/14 07:57:31;;;;;;;4.73;3.13;;;;;;;;;;5054976;28;20466;-61
2021/12/14 07:59:59;;;;;;;4.17;2.70;;;;;;;;;;5055595;28;20452;-62
2021/12/14 08:02:25;;;;;;;4.83;3.50;;;;;;;;;;5051614;28;20433;-61
2021/12/14 08:05:04;;;;;;;6.47;4.50;;;;;;;;;;5034954;28;20410;-61
2021/12/14 08:07:30;;;;;;;5.97;3.97;;;;;;;;;;5034029;28;20411;-61
2021/12/14 08:10:06;;;;;;;4.60;3.73;;;;;;;;;;5048506;28;20421;-59
2021/12/14 08:12:37;;;;;;;5.00;4.30;;;;;;;;;;5046717;28;20969;-61
2021/12/14 08:15:07;;;;;;;7.20;4.23;;;;;;;;;;5048383;28;20410;-60
2021/12/14 08:17:33;;;;;;;9.23;4.57;;;;;;;;;;5043474;28;20500;-61
2021/12/14 08:19:59;;;;;;;5.50;3.80;;;;;;;;;;5048408;28;20458;-62
2021/12/14 08:22:29;;;;;;;7.23;4.87;;;;;;;;;;5045844;28;20468;-59
2021/12/14 08:24:55;;;;;;;7.50;4.47;;;;;;;;;;5052763;28;20965;-61
2021/12/14 08:27:24;;;;;;;7.80;4.43;;;;;;;;;;5042716;28;20413;-60
2021/12/14 08:29:53;;;;;;;5.90;4.10;;;;;;;;;;5043120;28;20450;-62
2021/12/14 08:32:21;;;;;;;4.80;3.60;;;;;;;;;;5042984;28;20445;-61
2021/12/14 08:34:48;;;;;;;6.43;4.70;;;;;;;;;;5044132;28;20468;-62
2021/12/14 08:37:26;;;;;;;15.93;5.77;;;;;;;;;;5041009;28;20476;-62
2021/12/14 08:40:00;;;;;;;6.10;4.10;;;;;;;;;;5047374;28;20440;-61
2021/12/14 08:42:33;;;;;;;9.43;6.30;;;;;;;;;;5037022;28;20406;-61
2021/12/14 08:45:00;;;;;;;6.60;5.00;;;;;;;;;;5050800;28;20410;-62
2021/12/14 08:47:29;;;;;;;12.67;5.30;;;;;;;;;;5047359;28;20892;-61
2021/12/14 08:49:55;;;;;;;6.97;4.43;;;;;;;;;;5040681;28;20496;-61
2021/12/14 08:52:23;;;;;;;6.47;5.00;;;;;;;;;;5038621;28;20436;-61
2021/12/14 08:54:49;;;;;;;7.50;4.50;;;;;;;;;;5043260;28;20424;-61
2021/12/14 08:57:18;;;;;;;5.17;3.63;;;;;;;;;;5047979;28;20500;-59
2021/12/14 08:59:46;;;;;;;6.93;4.73;;;;;;;;;;5043280;28;20445;-60
2021/12/14 09:02:15;;;;;;;5.07;4.10;;;;;;;;;;5046436;28;20453;-61
2021/12/14 09:04:46;;;;;;;6.97;4.70;;;;;;;;;;5044382;28;20422;-62
2021/12/14 09:07:15;;;;;;;6.70;4.30;;;;;;;;;;5035687;28;20410;-62
2021/12/14 09:09:41;;;;;;;8.17;4.70;;;;;;;;;;5039655;28;20839;-61
2021/12/14 09:12:10;;;;;;;5.57;3.90;;;;;;;;;;5042408;28;20903;-62
2021/12/14 09:14:37;;;;;;;5.73;3.67;;;;;;;;;;5040490;28;20424;-62
2021/12/14 09:17:05;;;;;;;5.47;4.10;;;;;;;;;;5038044;28;20509;-61
2021/12/14 09:19:34;;;;;;;5.70;4.63;;;;;;;;;;5037342;28;20454;-59
2021/12/14 09:22:02;;;;;;;7.30;4.70;;;;;;;;;;5038630;28;20898;-61
2021/12/14 09:24:29;;;;;;;5.13;3.67;;;;;;;;;;5044787;28;20484;-62
2021/12/14 09:26:58;;;;;;;7.03;4.83;;;;;;;;;;5044237;28;20432;-61
2021/12/14 09:29:25;;;;;;;7.90;5.10;;;;;;;;;;5043640;28;20562;-61
2021/12/14 09:31:54;;;;;;;8.73;5.63;;;;;;;;;;5042931;28;20410;-60
2021/12/14 09:34:21;;;;;;;7.90;4.57;;;;;;;;;;5048034;28;20431;-62
2021/12/14 09:36:50;;;;;;;10.63;5.10;;;;;;;;;;5044314;28;20430;-60
2021/12/14 09:39:19;;;;;;;5.43;4.50;;;;;;;;;;5037522;28;20462;-62
2021/12/14 09:41:47;;;;;;;16.57;5.53;;;;;;;;;;5037606;28;20431;-62
2021/12/14 09:44:16;;;;;;;7.20;4.60;;;;;;;;;;5041311;28;21338;-61
2021/12/14 09:46:43;;;;;;;15.27;5.10;;;;;;;;;;5042862;28;20421;-62
2021/12/14 09:49:11;;;;;;;6.73;5.70;;;;;;;;;;5038736;28;20447;-62
2021/12/14 09:51:41;;;;;;;9.77;5.30;;;;;;;;;;5038338;28;20433;-64
2021/12/14 09:54:08;;;;;;;11.30;6.10;;;;;;;;;;5028803;28;20992;-63
2021/12/14 09:56:37;;;;;;;9.37;5.03;;;;;;;;;;5035184;28;20433;-62
2021/12/14 09:59:05;;;;;;;5.20;4.60;;;;;;;;;;5031548;28;20471;-60
2021/12/14 10:01:39;;;;;;;8.97;4.30;;;;;;;;;;5033627;28;20907;-63
2021/12/14 10:04:16;;;;;;;4.40;3.40;;;;;;;;;;5036110;28;20961;-62
2021/12/14 10:06:42;;;;;;;4.40;3.10;;;;;;;;;;5032630;28;20418;-61
2021/12/14 10:09:11;;;;;;;4.20;3.57;;;;;;;;;;5027329;28;20823;-62
2021/12/14 10:12:02;;;;;;;3.30;2.80;;;;;;;;;;5032720;28;20519;-62
2021/12/14 10:14:31;;;;;;;3.70;3.20;;;;;;;;;;5031262;28;20448;-62
2021/12/14 10:16:57;;;;;;;4.10;2.90;;;;;;;;;;5031352;28;20430;-62
2021/12/14 10:19:25;;;;;;;9.40;3.27;;;;;;;;;;5030340;28;20473;-61
2021/12/14 10:21:54;;;;;;;3.80;3.30;;;;;;;;;;5028383;28;20564;-62
2021/12/14 10:24:21;;;;;;;9.83;2.50;;;;;;;;;;5030783;28;20417;-63
2021/12/14 10:26:50;;;;;;;4.53;3.40;;;;;;;;;;5032642;28;20855;-62
2021/12/14 10:29:16;;;;;;;3.90;3.30;;;;;;;;;;5033865;28;20437;-62
2021/12/14 10:31:45;;;;;;;3.67;3.13;;;;;;;;;;5028695;28;20428;-62
2021/12/14 10:34:14;;;;;;;4.07;3.47;;;;;;;;;;5035196;28;20544;-73
2021/12/14 10:36:45;;;;;;;3.40;2.67;;;;;;;;;;5032584;28;20465;-67
2021/12/14 10:39:24;;;;;;;4.55;3.38;;;;;;;;;;5038513;28;20431;-70
2021/12/14 10:44:40;;;;;;;4.30;3.40;;;;;;;;;;5040814;28;20397;-67
2021/12/14 10:47:07;;;;;;;5.20;3.67;;;;;;;;;;5035894;28;20414;-66
2021/12/14 10:49:34;;;;;;;4.27;3.60;;;;;;;;;;5039221;28;20430;-68
2021/12/14 10:52:03;;;;;;;3.77;3.40;;;;;;;;;;5038838;28;20437;-63
2021/12/14 10:54:29;;;;;;;5.10;3.70;;;;;;;;;;5041621;28;20418;-70
2021/12/14 10:56:58;;;;;;;5.57;3.45;;;;;;;;;;5031148;28;20423;-66
2021/12/14 10:59:29;;;;;;;4.30;3.30;;;;;;;;;;5038745;28;20844;-62
2021/12/14 11:01:56;;;;;;;5.63;4.43;;;;;;;;;;5036211;28;20414;-65
2021/12/14 11:04:26;;;;;;;4.87;3.60;;;;;;;;;;5040150;28;20529;-63
2021/12/14 11:06:53;;;;;;;6.30;3.90;;;;;;;;;;5037874;28;20522;-63
2021/12/14 11:09:45;;;;;;;4.87;3.40;;;;;;;;;;5040974;28;20439;-64
2021/12/14 11:12:16;;;;;;;4.40;3.93;;;;;;;;;;5039974;28;20448;-65
2021/12/14 11:14:42;;;;;;;5.90;3.83;;;;;;;;;;5029420;28;20415;-61
2021/12/14 11:20:08;;;;;;;5.70;3.67;;;;;;;;;;5037562;28;20484;-67
2021/12/14 11:22:43;;;;;;;5.43;3.60;;;;;;;;;;5029796;28;20461;-63
2021/12/14 11:25:16;;;;;;;7.13;4.40;;;;;;;;;;5036521;28;20541;-66
2021/12/14 11:27:46;;;;;;;9.00;5.53;;;;;;;;;;5038208;28;20449;-66
2021/12/14 11:30:17;;;;;;;6.00;4.13;;;;;;;;;;5036573;28;20422;-66
2021/12/14 11:32:44;;;;;;;6.70;5.47;;;;;;;;;;5035747;28;20549;-63
2021/12/14 11:35:22;;;;;;;5.00;4.40;;;;;;;;;;5034026;28;20496;-59
2021/12/14 11:37:49;;;;;;;9.50;4.10;;;;;;;;;;5034472;28;20433;-60
2021/12/14 11:40:15;;;;;;;3.87;3.47;;;;;;;;;;5036632;28;20414;-58
2021/12/14 11:42:41;;;;;;;3.70;3.23;;;;;;;;;;5034662;28;20421;-59
2021/12/14 11:45:10;;;;;;;4.93;4.00;;;;;;;;;;5035249;28;20422;-67
2021/12/14 11:47:43;;;;;;;6.53;4.23;;;;;;;;;;5034525;28;20572;-65
2021/12/14 11:50:30;;;;;;;5.07;4.32;;;;;;;;;;5034781;28;20323;-69
2021/12/14 11:53:00;;;;;;;4.40;3.90;;;;;;;;;;5032537;28;20226;-68
2021/12/14 11:55:29;;;;;;;4.00;3.57;;;;;;;;;;5027072;28;20448;-68
2021/12/14 11:58:09;;;;;;;3.40;3.10;;;;;;;;;;5035060;28;20494;-69
2021/12/14 12:00:37;;;;;;;5.33;3.90;;;;;;;;;;5034585;28;20418;-70
2021/12/14 12:03:22;;;;;;;5.60;3.90;;;;;;;;;;5032306;28;20429;-71
2021/12/14 12:05:59;;;;;;;4.83;3.13;;;;;;;;;;5039315;28;20464;-70
2021/12/14 12:11:11;;;;;;;4.50;3.53;;;;;;;;;;5033331;28;20412;-64
2021/12/14 12:13:39;;;;;;;4.40;3.40;;;;;;;;;;5032135;28;20421;-64
2021/12/14 12:16:17;;;;;;;4.70;3.93;;;;;;;;;;5032815;28;20426;-66
2021/12/14 12:19:22;;;;;;;4.40;3.33;;;;;;;;;;5028587;28;20473;-62
2021/12/14 12:21:50;;;;;;;7.30;3.77;;;;;;;;;;5029071;28;20414;-67
2021/12/14 12:24:42;;;;;;;5.47;4.40;;;;;;;;;;5036840;28;20454;-65
2021/12/14 12:27:41;;;;;;;5.00;4.50;;;;;;;;;;5031048;28;20418;-61
2021/12/14 12:30:07;;;;;;;6.10;4.73;;;;;;;;;;5035478;28;20845;-60
2021/12/14 12:32:33;;;;;;;6.23;4.57;;;;;;;;;;5038505;28;20924;-61
2021/12/14 12:35:00;;;;;;;6.97;4.70;;;;;;;;;;5035805;28;20469;-61
2021/12/14 12:37:40;;;;;;;7.23;5.20;;;;;;;;;;5031322;28;22178;-60
2021/12/14 12:40:09;;;;;;;6.40;5.17;;;;;;;;;;5034205;28;20402;-59
2021/12/14 12:42:35;;;;;;;8.60;5.00;;;;;;;;;;5034177;28;20958;-62
2021/12/14 12:45:01;;;;;;;7.73;5.17;;;;;;;;;;5032534;28;21062;-61
2021/12/14 12:47:28;;;;;;;8.07;5.33;;;;;;;;;;5034410;28;20427;-72
2021/12/14 12:49:59;;;;;;;9.23;5.30;;;;;;;;;;5039769;28;20794;-68
2021/12/14 12:52:30;;;;;;;7.50;5.93;;;;;;;;;;5037071;28;20423;-72
2021/12/14 12:55:03;;;;;;;7.00;4.80;;;;;;;;;;5034328;28;20399;-68
2021/12/14 12:57:36;;;;;;;8.20;5.33;;;;;;;;;;5034089;28;20513;-67
2021/12/14 13:00:11;;;;;;;7.40;5.10;;;;;;;;;;5040538;28;20437;-71
2021/12/14 13:02:43;;;;;;;7.77;5.83;;;;;;;;;;5038817;28;20461;-66
2021/12/14 13:05:28;;;;;;;6.97;5.77;;;;;;;;;;5039068;28;20420;-67
2021/12/14 13:08:16;;;;;;;8.27;5.50;;;;;;;;;;5032479;28;20812;-68
2021/12/14 13:10:45;;;;;;;7.37;5.03;;;;;;;;;;5032656;28;21067;-68
2021/12/14 13:13:22;;;;;;;11.57;6.47;;;;;;;;;;5035782;28;20410;-67
2021/12/14 13:15:57;;;;;;;6.70;5.37;;;;;;;;;;5035546;28;20409;-68
2021/12/14 13:18:23;;;;;;;6.40;5.00;;;;;;;;;;5033648;28;20504;-69
2021/12/14 13:20:51;;;;;;;7.87;5.87;;;;;;;;;;5033981;28;20450;-68
2021/12/14 13:23:22;;;;;;;7.83;6.20;;;;;;;;;;5029662;28;20413;-60
2021/12/14 13:25:48;;;;;;;5.67;4.77;;;;;;;;;;5034239;28;20415;-61
2021/12/14 13:28:14;;;;;;;9.90;5.70;;;;;;;;;;5032695;28;20441;-67
2021/12/14 13:30:41;;;;;;;7.90;5.33;;;;;;;;;;5039152;28;20429;-65
2021/12/14 13:33:27;;;;;;;6.60;4.80;;;;;;;;;;5031436;28;20437;-65
2021/12/14 13:35:53;;;;;;;6.07;5.43;;;;;;;;;;5034461;28;20426;-65
2021/12/14 13:38:19;;;;;;;11.13;5.90;;;;;;;;;;5038940;28;20474;-65
2021/12/14 13:40:46;;;;;;;7.73;4.97;;;;;;;;;;5042065;28;20413;-65
2021/12/14 13:43:12;;;;;;;6.77;5.10;;;;;;;;;;5037438;28;20422;-64
2021/12/14 13:45:40;;;;;;;6.30;5.07;;;;;;;;;;5034076;28;20425;-65
2021/12/14 13:48:07;;;;;;;6.23;5.13;;;;;;;;;;5037621;28;20886;-62
2021/12/14 13:50:38;;;;;;;6.30;5.20;;;;;;;;;;5034303;28;20448;-63
2021/12/14 13:53:05;;;;;;;6.00;4.80;;;;;;;;;;5034733;28;20432;-62
2021/12/14 13:55:37;;;;;;;7.93;4.87;;;;;;;;;;5035621;28;20430;-63
2021/12/14 13:58:07;;;;;;;6.63;4.50;;;;;;;;;;5033907;28;20870;-63
2021/12/14 14:00:36;;;;;;;6.80;5.80;;;;;;;;;;5033042;28;21830;-63
2021/12/14 14:03:02;;;;;;;7.20;6.00;;;;;;;;;;5037216;28;20419;-63
2021/12/14 14:05:28;;;;;;;6.87;5.50;;;;;;;;;;5033337;28;20811;-62
2021/12/14 14:07:57;;;;;;;6.53;5.07;;;;;;;;;;5033562;28;20441;-62
2021/12/14 14:10:23;;;;;;;5.80;5.00;;;;;;;;;;5030953;28;20461;-64
2021/12/14 14:12:51;;;;;;;5.40;4.23;;;;;;;;;;5034766;28;20865;-63
2021/12/14 14:15:19;;;;;;;8.77;5.77;;;;;;;;;;5041740;28;20441;-65
2021/12/14 14:17:53;;;;;;;7.80;5.30;;;;;;;;;;5038078;28;20457;-66
2021/12/14 14:20:27;;;;;;;6.03;5.00;;;;;;;;;;5036968;28;20418;-64
2021/12/14 14:22:54;;;;;;;6.77;5.37;;;;;;;;;;5036498;28;21408;-64
2021/12/14 14:25:26;;;;;;;6.97;4.73;;;;;;;;;;5031388;28;20414;-63
2021/12/14 14:27:52;;;;;;;9.70;5.80;;;;;;;;;;5037612;28;20436;-63
2021/12/14 14:30:24;;;;;;;7.40;5.10;;;;;;;;;;5028262;28;20421;-67
2021/12/14 14:32:59;;;;;;;12.47;4.40;;;;;;;;;;5029543;28;21037;-61
2021/12/14 14:35:47;;;;;;;6.00;4.40;;;;;;;;;;5033955;28;20410;-63
2021/12/14 14:38:25;;;;;;;5.73;5.00;;;;;;;;;;5028552;28;20584;-61
2021/12/14 14:41:12;;;;;;;6.93;4.80;;;;;;;;;;5032391;28;20421;-66
2021/12/14 14:43:56;;;;;;;6.60;4.27;;;;;;;;;;5038143;28;20414;-66
2021/12/14 14:46:38;;;;;;;4.50;4.00;;;;;;;;;;5036771;28;20427;-65
2021/12/14 14:49:08;;;;;;;6.23;4.90;;;;;;;;;;5035604;28;20864;-67
2021/12/14 14:51:46;;;;;;;5.73;4.70;;;;;;;;;;5037194;28;20465;-66
2021/12/14 14:54:34;;;;;;;5.60;3.60;;;;;;;;;;5037097;28;20459;-66
2021/12/14 14:57:20;;;;;;;5.83;4.60;;;;;;;;;;5038718;28;20494;-64
2021/12/14 14:59:55;;;;;;;6.10;4.80;;;;;;;;;;5040901;28;20457;-65
2021/12/14 15:02:44;;;;;;;6.20;4.50;;;;;;;;;;5039998;28;20843;-66
2021/12/14 15:05:12;;;;;;;6.03;4.57;;;;;;;;;;5037826;28;20410;-66
2021/12/14 15:07:51;;;;;;;8.13;5.57;;;;;;;;;;5038461;28;20457;-66
2021/12/14 15:10:18;;;;;;;6.50;4.97;;;;;;;;;;5039225;28;20449;-65
2021/12/14 15:12:44;;;;;;;6.73;4.83;;;;;;;;;;5039159;28;20415;-66
2021/12/14 15:15:13;;;;;;;5.50;4.57;;;;;;;;;;5036683;28;20911;-66
2021/12/14 15:17:47;;;;;;;6.23;5.30;;;;;;;;;;5042512;28;20462;-65
2021/12/14 15:20:33;;;;;;;5.97;4.97;;;;;;;;;;5048580;28;20417;-63
2021/12/14 15:23:04;;;;;;;6.23;4.20;;;;;;;;;;5041462;28;20407;-63
2021/12/14 15:25:33;;;;;;;7.37;5.40;;;;;;;;;;5044206;28;20418;-60
2021/12/14 15:28:00;;;;;;;6.63;5.40;;;;;;;;;;5052961;28;20440;-61
2021/12/14 15:30:46;;;;;;;6.27;4.47;;;;;;;;;;5040135;28;20850;-62
2021/12/14 15:33:12;;;;;;;5.30;4.80;;;;;;;;;;5044823;28;20410;-63
2021/12/14 15:35:42;;;;;;;7.97;5.90;;;;;;;;;;5044453;28;20456;-63
2021/12/14 15:38:13;;;;;;;12.87;6.53;;;;;;;;;;5042583;28;20520;-64